createdAt,value
2022-08-07T00:00:36.598Z,57.26
2022-08-07T00:03:07.213Z,57.11
2022-08-07T00:05:37.017Z,57.22
2022-08-07T00:08:05.277Z,57.51
2022-08-07T00:10:34.681Z,57.77
2022-08-07T00:13:17.484Z,57.79
2022-08-07T00:15:51.796Z,57.86
2022-08-07T00:18:24.649Z,58.23
2022-08-07T00:21:01.451Z,57.92
2022-08-07T00:23:30.348Z,58.14
2022-08-07T00:26:02.857Z,58.10
2022-08-07T00:28:45.648Z,58.31
2022-08-07T00:31:16.442Z,58.49
2022-08-07T00:33:43.513Z,58.93
2022-08-07T00:36:14.412Z,58.19
2022-08-07T00:38:41.492Z,58.10
2022-08-07T00:41:14.386Z,58.77
2022-08-07T00:44:00.599Z,58.20
2022-08-07T00:46:30.100Z,59.14
2022-08-07T00:49:03.081Z,59.79
2022-08-07T00:51:58.190Z,58.94
2022-08-07T00:54:19.633Z,59.48
2022-08-07T00:56:49.713Z,59.45
2022-08-07T00:59:17.448Z,59.77
2022-08-07T01:01:48.491Z,59.68
2022-08-07T01:04:21.792Z,59.91
2022-08-07T01:06:51.634Z,59.59
2022-08-07T01:10:04.218Z,59.65
2022-08-07T01:12:28.812Z,59.97
2022-08-07T01:15:00.795Z,59.59
2022-08-07T01:17:30.092Z,59.38
2022-08-07T01:20:05.225Z,59.28
2022-08-07T01:22:33.425Z,59.98
2022-08-07T01:25:01.038Z,59.89
2022-08-07T01:27:32.367Z,60.09
2022-08-07T01:30:00.598Z,60.70
2022-08-07T01:32:27.819Z,60.92
2022-08-07T01:34:55.890Z,60.30
2022-08-07T01:37:24.569Z,60.03
2022-08-07T01:39:52.282Z,60.51
2022-08-07T01:42:37.586Z,60.64
2022-08-07T01:45:10.094Z,60.68
2022-08-07T01:48:20.351Z,62.11
2022-08-07T01:50:30.698Z,61.21
2022-08-07T01:53:00.185Z,61.65
2022-08-07T01:55:33.608Z,61.90
2022-08-07T01:58:06.679Z,61.71
2022-08-07T02:00:58.047Z,62.15
2022-08-07T02:03:48.911Z,62.19
2022-08-07T02:06:31.591Z,62.95
2022-08-07T02:09:03.677Z,60.35
2022-08-07T02:12:03.342Z,62.34
2022-08-07T02:14:40.366Z,61.63
2022-08-07T02:17:10.953Z,61.65
2022-08-07T02:20:05.339Z,60.69
2022-08-07T02:22:29.388Z,61.59
2022-08-07T02:24:58.227Z,60.63
2022-08-07T02:27:27.496Z,59.93
2022-08-07T02:30:03.884Z,58.74
2022-08-07T02:32:36.288Z,57.01
2022-08-07T02:35:09.077Z,58.58
2022-08-07T02:37:44.074Z,57.81
2022-08-07T02:40:30.472Z,59.01
2022-08-07T02:43:00.112Z,56.87
2022-08-07T02:45:58.748Z,56.71
2022-08-07T02:48:15.985Z,56.98
2022-08-07T02:50:48.402Z,57.12
2022-08-07T02:53:28.566Z,56.78
2022-08-07T02:56:04.250Z,56.96
2022-08-07T02:58:33.882Z,56.69
2022-08-07T03:01:03.146Z,56.47
2022-08-07T03:03:49.523Z,56.24
2022-08-07T03:06:26.032Z,56.10
2022-08-07T03:09:02.368Z,56.86
2022-08-07T03:11:32.726Z,55.71
2022-08-07T03:14:02.358Z,56.09
2022-08-07T03:16:30.944Z,55.96
2022-08-07T03:18:59.350Z,55.20
2022-08-07T03:21:27.461Z,56.00
2022-08-07T03:24:19.720Z,55.78
2022-08-07T03:26:51.374Z,55.42
2022-08-07T03:29:33.885Z,55.77
2022-08-07T03:32:07.146Z,56.48
2022-08-07T03:34:47.155Z,56.86
2022-08-07T03:37:32.828Z,56.83
2022-08-07T03:40:15.940Z,56.93
2022-08-07T03:42:43.753Z,57.92
2022-08-07T03:45:12.161Z,57.77
2022-08-07T03:47:58.707Z,56.22
2022-08-07T03:50:28.741Z,57.42
2022-08-07T03:52:58.719Z,57.10
2022-08-07T03:55:57.572Z,56.79
2022-08-07T03:59:04.981Z,56.70
2022-08-07T04:01:03.892Z,57.01
2022-08-07T04:03:49.651Z,57.24
2022-08-07T04:06:36.143Z,57.15
2022-08-07T04:09:03.732Z,57.60
2022-08-07T04:12:27.948Z,58.12
2022-08-07T04:14:37.552Z,57.70
2022-08-07T04:17:19.855Z,58.20
2022-08-07T04:19:52.327Z,57.90
2022-08-07T04:22:29.378Z,58.93
2022-08-07T04:24:58.691Z,59.23
2022-08-07T04:27:28.124Z,59.08
2022-08-07T04:30:02.113Z,59.75
2022-08-07T04:32:34.622Z,58.89
2022-08-07T04:35:05.608Z,59.22
2022-08-07T04:38:00.786Z,59.56
2022-08-07T04:40:21.140Z,59.69
2022-08-07T04:42:51.745Z,57.94
2022-08-07T04:45:44.452Z,59.41
2022-08-07T04:48:44.735Z,60.49
2022-08-07T04:51:33.440Z,59.63
2022-08-07T04:54:31.748Z,60.94
2022-08-07T04:58:10.149Z,59.92
2022-08-07T05:00:14.301Z,60.56
2022-08-07T05:02:55.467Z,61.36
2022-08-07T05:05:53.230Z,60.25
2022-08-07T05:08:59.045Z,60.50
2022-08-07T05:11:27.778Z,59.47
2022-08-07T05:14:53.516Z,59.34
2022-08-07T05:17:12.218Z,58.51
2022-08-07T05:19:47.261Z,58.02
2022-08-07T05:22:26.833Z,58.75
2022-08-07T05:24:57.222Z,58.37
2022-08-07T05:28:15.901Z,58.45
2022-08-07T05:30:29.942Z,57.63
2022-08-07T05:32:58.909Z,58.30
2022-08-07T05:35:33.926Z,56.92
2022-08-07T05:38:10.030Z,57.40
2022-08-07T05:40:49.547Z,56.04
2022-08-07T05:43:19.367Z,56.57
2022-08-07T05:46:06.310Z,55.80
2022-08-07T05:48:33.982Z,54.70
2022-08-07T05:51:03.513Z,54.48
2022-08-07T05:54:09.648Z,54.43
2022-08-07T05:56:20.048Z,53.90
2022-08-07T05:58:58.547Z,53.56
2022-08-07T06:01:27.570Z,54.50
2022-08-07T06:04:04.863Z,54.05
2022-08-07T06:06:33.470Z,51.83
2022-08-07T06:09:01.269Z,52.44
2022-08-07T06:11:32.691Z,52.94
2022-08-07T06:14:13.067Z,51.33
2022-08-07T06:16:50.555Z,52.27
2022-08-07T06:19:51.817Z,54.21
2022-08-07T06:22:15.282Z,50.92
2022-08-07T06:24:56.778Z,51.18
2022-08-07T06:28:00.545Z,50.75
2022-08-07T06:30:31.819Z,50.04
2022-08-07T06:33:00.199Z,49.33
2022-08-07T06:35:39.149Z,49.91
2022-08-07T06:38:19.867Z,49.65
2022-08-07T06:40:51.445Z,49.73
2022-08-07T06:43:23.607Z,48.59
2022-08-07T06:45:50.869Z,48.09
2022-08-07T06:48:24.846Z,48.75
2022-08-07T06:50:54.843Z,47.87
2022-08-07T06:54:11.845Z,47.51
2022-08-07T06:56:15.374Z,51.65
2022-08-07T07:00:14.211Z,48.19
2022-08-07T07:01:43.988Z,46.75
2022-08-07T07:04:32.588Z,48.19
2022-08-07T07:07:01.892Z,46.57
2022-08-07T07:09:31.336Z,46.74
2022-08-07T07:12:19.629Z,44.77
2022-08-07T07:15:23.924Z,46.50
2022-08-07T07:18:06.385Z,43.91
2022-08-07T07:20:36.990Z,45.55
2022-08-07T07:24:09.177Z,45.52
2022-08-07T07:26:33.869Z,44.70
2022-08-07T07:29:39.918Z,44.17
2022-08-07T07:31:51.779Z,43.07
2022-08-07T07:34:31.220Z,42.97
2022-08-07T07:37:14.618Z,42.76
2022-08-07T07:39:54.954Z,42.73
2022-08-07T07:42:30.813Z,43.25
2022-08-07T07:45:02.528Z,43.14
2022-08-07T07:47:30.510Z,42.03
2022-08-07T07:50:32.477Z,42.62
2022-08-07T07:53:20.103Z,41.76
2022-08-07T07:56:00.915Z,40.68
2022-08-07T07:58:40.593Z,41.15
2022-08-07T08:02:01.812Z,43.34
2022-08-07T08:04:06.258Z,45.21
2022-08-07T08:06:36.752Z,41.33
2022-08-07T08:09:06.139Z,39.55
2022-08-07T08:12:00.060Z,39.89
2022-08-07T08:14:26.276Z,40.97
2022-08-07T08:16:56.112Z,41.49
2022-08-07T08:20:19.215Z,44.77
2022-08-07T08:22:55.839Z,39.09
2022-08-07T08:25:49.244Z,37.35
2022-08-07T08:28:23.926Z,38.67
2022-08-07T08:31:06.630Z,36.24
2022-08-07T08:33:34.954Z,39.44
2022-08-07T08:36:03.258Z,41.58
2022-08-07T08:38:41.317Z,39.72
2022-08-07T08:41:17.075Z,36.19
2022-08-07T08:43:58.841Z,37.54
2022-08-07T08:46:38.105Z,37.87
2022-08-07T08:49:24.725Z,36.12
2022-08-07T08:52:13.968Z,35.29
2022-08-07T08:55:01.356Z,35.51
2022-08-07T08:57:58.850Z,39.86
2022-08-07T09:00:32.596Z,41.50
2022-08-07T09:03:49.809Z,35.21
2022-08-07T09:06:33.440Z,44.03
2022-08-07T09:09:29.895Z,37.83
2022-08-07T09:12:20.000Z,36.82
2022-08-07T09:16:25.154Z,33.87
2022-08-07T09:18:35.072Z,30.19
2022-08-07T09:21:03.358Z,33.97
2022-08-07T09:24:53.562Z,37.07
2022-08-07T09:26:47.541Z,31.73
2022-08-07T09:30:03.548Z,31.54
2022-08-07T09:32:21.780Z,30.24
2022-08-07T09:36:02.927Z,37.97
2022-08-07T09:38:32.641Z,30.12
2022-08-07T09:41:36.157Z,32.22
2022-08-07T09:44:19.445Z,31.37
2022-08-07T09:47:52.063Z,30.80
2022-08-07T09:50:46.321Z,31.84
2022-08-07T09:53:14.728Z,36.61
2022-08-07T09:56:04.113Z,33.87
2022-08-07T09:58:48.799Z,29.44
2022-08-07T10:01:54.890Z,30.43
2022-08-07T10:04:28.374Z,29.17
2022-08-07T10:07:26.034Z,30.67
2022-08-07T10:10:28.506Z,33.81
2022-08-07T10:13:55.003Z,33.81
2022-08-07T10:16:33.930Z,26.58
2022-08-07T10:19:40.866Z,24.00
2022-08-07T10:22:33.553Z,26.07
2022-08-07T10:25:20.998Z,27.36
2022-08-07T10:28:02.370Z,33.15
2022-08-07T10:30:49.103Z,29.47
2022-08-07T10:34:06.136Z,31.15
2022-08-07T10:37:15.282Z,35.71
2022-08-07T10:40:18.159Z,26.80
2022-08-07T10:43:06.408Z,35.31
2022-08-07T10:45:57.205Z,31.61
2022-08-07T10:48:48.984Z,24.55
2022-08-07T10:51:39.427Z,26.65
2022-08-07T10:54:08.768Z,26.17
2022-08-07T10:57:00.628Z,29.86
2022-08-07T10:59:45.370Z,31.54
2022-08-07T11:02:35.084Z,26.08
2022-08-07T11:05:35.625Z,30.88
2022-08-07T11:08:49.282Z,29.01
2022-08-07T11:11:24.304Z,33.81
2022-08-07T11:14:45.419Z,28.25
2022-08-07T11:18:03.337Z,30.01
2022-08-07T11:20:56.716Z,23.32
2022-08-07T11:23:36.398Z,23.85
2022-08-07T11:26:21.952Z,26.45
2022-08-07T11:28:58.852Z,25.11
2022-08-07T11:31:37.110Z,25.73
2022-08-07T11:34:31.206Z,29.82
2022-08-07T11:37:16.671Z,30.44
2022-08-07T11:40:03.677Z,28.10
2022-08-07T11:42:51.783Z,34.84
2022-08-07T11:45:58.065Z,23.37
2022-08-07T11:49:27.807Z,22.77
2022-08-07T11:52:05.225Z,30.71
2022-08-07T11:54:34.236Z,26.97
2022-08-07T11:57:58.438Z,31.58
2022-08-07T12:00:19.358Z,28.60
2022-08-07T12:03:41.921Z,27.69
2022-08-07T12:06:37.013Z,26.48
2022-08-07T12:09:04.745Z,23.17
2022-08-07T12:12:09.171Z,25.97
2022-08-07T12:15:02.834Z,28.42
2022-08-07T12:17:40.554Z,20.57
2022-08-07T12:20:35.102Z,26.32
2022-08-07T12:23:37.340Z,21.96
2022-08-07T12:26:22.869Z,25.65
2022-08-07T12:29:20.308Z,20.28
2022-08-07T12:32:24.306Z,22.69
2022-08-07T12:34:56.320Z,28.89
2022-08-07T12:37:28.322Z,21.77
2022-08-07T12:40:36.127Z,21.10
2022-08-07T12:43:09.936Z,21.82
2022-08-07T12:45:52.739Z,22.91
2022-08-07T12:48:52.409Z,22.13
2022-08-07T12:51:46.430Z,23.07
2022-08-07T12:54:38.491Z,23.51
2022-08-07T12:57:09.673Z,22.40
2022-08-07T12:59:55.335Z,22.88
2022-08-07T13:02:53.415Z,24.69
2022-08-07T13:06:02.848Z,21.92
2022-08-07T13:10:10.053Z,23.04
2022-08-07T13:12:22.184Z,24.46
2022-08-07T13:15:08.504Z,22.62
2022-08-07T13:18:02.323Z,24.16
2022-08-07T13:20:51.069Z,22.51
2022-08-07T13:24:01.654Z,21.95
2022-08-07T13:26:46.492Z,24.92
2022-08-07T13:29:47.825Z,21.32
2022-08-07T13:32:32.317Z,21.54
2022-08-07T13:35:08.615Z,21.92
2022-08-07T13:37:58.469Z,22.67
2022-08-07T13:40:42.420Z,25.44
2022-08-07T13:43:16.128Z,22.62
2022-08-07T13:46:20.667Z,21.11
2022-08-07T13:48:51.963Z,22.26
2022-08-07T13:52:22.943Z,21.98
2022-08-07T13:54:22.639Z,22.52
2022-08-07T13:56:59.696Z,23.35
2022-08-07T13:59:31.435Z,23.46
2022-08-07T14:02:12.998Z,24.40
2022-08-07T14:04:55.100Z,22.51
2022-08-07T14:07:30.512Z,21.91
2022-08-07T14:10:01.490Z,21.82
2022-08-07T14:12:54.740Z,23.56
2022-08-07T14:15:40.352Z,24.63
2022-08-07T14:18:28.910Z,24.97
2022-08-07T14:21:21.189Z,22.95
2022-08-07T14:24:03.718Z,22.58
2022-08-07T14:26:50.390Z,24.30
2022-08-07T14:30:08.147Z,20.74
2022-08-07T14:32:12.683Z,22.93
2022-08-07T14:34:45.797Z,23.76
2022-08-07T14:40:17.516Z,21.63
2022-08-07T14:45:50.517Z,22.39
2022-08-07T14:48:27.266Z,21.98
2022-08-07T14:50:57.154Z,23.62
2022-08-07T14:54:08.590Z,22.39
2022-08-07T14:56:30.472Z,22.89
2022-08-07T14:59:02.132Z,22.12
2022-08-07T15:01:42.808Z,20.84
2022-08-07T15:04:19.086Z,22.71
2022-08-07T15:06:48.900Z,21.47
2022-08-07T15:09:47.110Z,22.88
2022-08-07T15:15:22.798Z,21.91
2022-08-07T15:17:58.219Z,22.84
2022-08-07T15:20:35.713Z,22.51
2022-08-07T15:25:03.129Z,22.68
2022-08-07T15:32:01.362Z,23.14
2022-08-07T15:34:37.780Z,22.90
2022-08-07T15:37:27.550Z,23.43
2022-08-07T15:39:59.040Z,22.14
2022-08-07T15:42:43.702Z,21.99
2022-08-07T15:45:55.923Z,22.13
2022-08-07T15:48:29.904Z,22.62
2022-08-07T15:51:08.065Z,23.06
2022-08-07T15:53:53.181Z,24.51
2022-08-07T15:56:29.467Z,23.80
2022-08-07T15:59:04.381Z,24.30
2022-08-07T16:01:39.368Z,24.09
2022-08-07T16:04:15.496Z,23.08
2022-08-07T16:06:48.301Z,24.06
2022-08-07T16:09:40.989Z,25.04
2022-08-07T16:12:28.631Z,25.58
2022-08-07T16:15:54.945Z,24.19
2022-08-07T16:18:49.693Z,24.17
2022-08-07T16:22:02.088Z,24.94
2022-08-07T16:24:34.833Z,25.75
2022-08-07T16:27:01.992Z,24.44
2022-08-07T16:30:11.522Z,25.56
2022-08-07T16:32:54.145Z,25.05
2022-08-07T16:35:58.336Z,25.76
2022-08-07T16:39:02.246Z,26.32
2022-08-07T16:41:56.387Z,26.65
2022-08-07T16:44:55.434Z,27.86
2022-08-07T16:48:00.385Z,27.61
2022-08-07T16:50:38.852Z,27.85
2022-08-07T16:53:55.357Z,26.72
2022-08-07T16:56:19.094Z,26.84
2022-08-07T16:59:10.937Z,29.27
2022-08-07T17:02:03.900Z,26.98
2022-08-07T17:04:51.004Z,28.20
2022-08-07T17:07:55.521Z,27.62
2022-08-07T17:10:30.140Z,28.15
2022-08-07T17:13:18.295Z,28.50
2022-08-07T17:15:57.025Z,28.20
2022-08-07T17:18:46.929Z,28.27
2022-08-07T17:21:22.955Z,28.28
2022-08-07T17:23:49.645Z,29.45
2022-08-07T17:26:50.019Z,29.51
2022-08-07T17:30:15.639Z,28.91
2022-08-07T17:32:35.585Z,29.70
2022-08-07T17:35:50.061Z,31.04
2022-08-07T17:38:33.915Z,34.27
2022-08-07T17:42:01.017Z,30.97
2022-08-07T17:44:01.937Z,31.26
2022-08-07T17:46:57.087Z,32.69
2022-08-07T17:49:30.070Z,31.17
2022-08-07T17:52:01.568Z,32.25
2022-08-07T17:54:53.109Z,30.93
2022-08-07T17:57:58.523Z,33.08
2022-08-07T18:00:32.836Z,32.13
2022-08-07T18:04:04.179Z,33.36
2022-08-07T18:06:38.356Z,32.59
2022-08-07T18:09:08.646Z,34.75
2022-08-07T18:12:06.915Z,35.12
2022-08-07T18:15:08.375Z,34.09
2022-08-07T18:18:46.565Z,34.37
2022-08-07T18:21:38.365Z,34.33
2022-08-07T18:24:33.389Z,32.13
2022-08-07T18:27:17.503Z,34.62
2022-08-07T18:30:07.343Z,34.14
2022-08-07T18:32:46.183Z,33.88
2022-08-07T18:35:58.953Z,33.99
2022-08-07T18:40:05.637Z,34.30
2022-08-07T18:42:16.279Z,35.33
2022-08-07T18:45:39.905Z,35.16
2022-08-07T18:50:05.356Z,36.56
2022-08-07T18:51:11.594Z,36.85
2022-08-07T18:54:06.576Z,36.78
2022-08-07T18:57:29.835Z,36.82
2022-08-07T18:59:58.917Z,37.18
2022-08-07T19:02:55.915Z,36.19
2022-08-07T19:06:03.651Z,36.64
2022-08-07T19:08:26.468Z,36.91
2022-08-07T19:11:01.360Z,37.91
2022-08-07T19:14:17.243Z,37.47
2022-08-07T19:17:07.881Z,37.61
2022-08-07T19:20:01.573Z,38.74
2022-08-07T19:22:51.747Z,38.92
2022-08-07T19:26:22.643Z,40.23
2022-08-07T19:28:58.312Z,41.45
2022-08-07T19:31:38.193Z,40.64
2022-08-07T19:33:59.634Z,41.32
2022-08-07T19:36:29.429Z,42.84
2022-08-07T19:39:00.309Z,43.03
2022-08-07T19:41:39.158Z,43.83
2022-08-07T19:44:23.988Z,43.34
2022-08-07T19:47:10.862Z,44.43
2022-08-07T19:49:58.454Z,44.48
2022-08-07T19:52:31.061Z,44.71
2022-08-07T19:54:59.815Z,45.32
2022-08-07T19:58:02.108Z,45.21
2022-08-07T20:00:29.636Z,46.47
2022-08-07T20:03:35.733Z,45.42
2022-08-07T20:06:05.362Z,44.95
2022-08-07T20:08:35.828Z,44.73
2022-08-07T20:11:10.232Z,44.59
2022-08-07T20:13:58.141Z,45.00
2022-08-07T20:16:35.692Z,44.80
2022-08-07T20:19:06.129Z,44.52
2022-08-07T20:21:46.746Z,45.20
2022-08-07T20:24:24.112Z,45.25
2022-08-07T20:26:58.981Z,44.85
2022-08-07T20:29:49.234Z,45.36
2022-08-07T20:32:25.466Z,45.17
2022-08-07T20:34:57.455Z,45.47
2022-08-07T20:37:29.238Z,45.46
2022-08-07T20:40:02.979Z,45.73
2022-08-07T20:42:32.318Z,45.57
2022-08-07T20:45:01.281Z,45.35
2022-08-07T20:47:55.587Z,46.02
2022-08-07T20:50:22.512Z,45.94
2022-08-07T20:52:51.100Z,45.91
2022-08-07T20:55:24.011Z,45.39
2022-08-07T20:58:03.923Z,46.53
2022-08-07T21:00:42.973Z,46.54
2022-08-07T21:03:15.741Z,46.37
2022-08-07T21:05:58.439Z,46.54
2022-08-07T21:08:38.292Z,46.52
2022-08-07T21:11:21.959Z,46.94
2022-08-07T21:14:29.380Z,46.89
2022-08-07T21:18:02.188Z,46.43
2022-08-07T21:19:51.784Z,46.56
2022-08-07T21:22:53.311Z,47.19
2022-08-07T21:26:03.184Z,47.26
2022-08-07T21:28:51.856Z,47.32
2022-08-07T21:32:43.991Z,48.04
2022-08-07T21:35:14.524Z,47.57
2022-08-07T21:37:57.757Z,47.23
2022-08-07T21:40:41.450Z,47.18
2022-08-07T21:43:23.095Z,48.65
2022-08-07T21:46:10.721Z,47.50
2022-08-07T21:49:03.232Z,47.87
2022-08-07T21:51:51.484Z,47.50
2022-08-07T21:54:33.556Z,48.32
2022-08-07T21:57:03.175Z,48.33
2022-08-07T22:00:05.539Z,47.91
2022-08-07T22:03:00.408Z,48.27
2022-08-07T22:05:45.452Z,48.16
2022-08-07T22:08:18.501Z,48.24
2022-08-07T22:10:49.707Z,48.58
2022-08-07T22:13:17.146Z,48.42
2022-08-07T22:16:39.713Z,48.07
2022-08-07T22:19:04.996Z,48.50
2022-08-07T22:22:02.031Z,49.10
2022-08-07T22:24:55.435Z,48.46
2022-08-07T22:27:51.175Z,48.98
2022-08-07T22:30:22.280Z,49.46
2022-08-07T22:33:09.577Z,49.83
2022-08-07T22:36:00.812Z,50.46
2022-08-07T22:38:33.706Z,50.11
2022-08-07T22:41:16.282Z,50.29
2022-08-07T22:43:51.890Z,50.40
2022-08-07T22:47:06.154Z,50.75
2022-08-07T22:50:02.984Z,51.08
2022-08-07T22:52:48.027Z,50.15
2022-08-07T22:55:29.713Z,50.39
2022-08-07T22:58:19.946Z,50.48
2022-08-07T23:00:57.975Z,50.20
2022-08-07T23:03:58.827Z,50.00
2022-08-07T23:07:04.195Z,50.15
2022-08-07T23:10:37.844Z,50.46
2022-08-07T23:13:14.370Z,49.70
2022-08-07T23:16:05.824Z,49.64
2022-08-07T23:19:47.679Z,49.66
2022-08-07T23:22:32.719Z,49.12
2022-08-07T23:25:17.814Z,48.83
2022-08-07T23:28:34.117Z,48.79
2022-08-07T23:32:49.546Z,49.17
2022-08-07T23:34:37.324Z,49.43
2022-08-07T23:38:01.366Z,49.41
2022-08-07T23:40:39.606Z,49.42
2022-08-07T23:43:44.978Z,49.33
2022-08-07T23:46:23.572Z,49.46
2022-08-07T23:49:07.714Z,49.23
2022-08-07T23:53:00.394Z,49.61
2022-08-07T23:54:55.254Z,49.62
2022-08-07T23:58:18.714Z,50.31
